Terminal Aerodrome Forecast
Issued by NWS

Home | Current Version | Previous Version | Text Only | Print | Product List | Glossary On
Versions: 1 2 3 4 5 6 7 8 9 10 11 12 13 14 15 16 17 18 19 20 21 22 23 24 25 26 27 28 29 30
083
FTUS43 KSGF 250520
TAFJLN
TAF
KJLN 250520Z 2506/2606 14005KT P6SM SCT050
     FM250700 14004KT P6SM VCSH BKN080
     FM251100 32005KT P6SM VCTS BKN040CB
     FM251300 31007KT P6SM -SHRA OVC015
     FM251600 30010KT 5SM -SHRA OVC020
     FM251800 29010KT P6SM VCSH OVC030
     FM252300 29008KT P6SM VCSH BKN015
     FM260000 29007KT P6SM OVC015=

USA.gov is the U.S. government's official web portal to all federal, state and local government web resources and services.